Time;durP1;ratioP1;P1;durP2;ratioP2;P2;SDS_P1;SDS_P2;PMS_P1;PMS_P2;Temp;Humidity;BMP_temperature;BMP_pressure;BME280_temperature;BME280_humidity;BME280_pressure;Samples;Min_cycle;Max_cycle;Signal;HPM_P1;HPM_P2
2024/02/14 00:00:00;;;;;;;7.30;2.95;;;;;;;3.32;100.00;100996.66;5079239;28;20430;-78
2024/02/14 00:02:33;;;;;;;8.15;2.97;;;;;;;3.17;100.00;100992.44;5079919;28;20429;-78
2024/02/14 00:05:07;;;;;;;8.65;3.10;;;;;;;3.13;100.00;100985.03;5077010;28;20958;-78
2024/02/14 00:07:35;;;;;;;9.18;3.40;;;;;;;3.21;100.00;100984.75;5076610;28;21064;-78
2024/02/14 00:10:10;;;;;;;8.98;3.13;;;;;;;3.12;100.00;100984.22;5077846;28;20849;-78
2024/02/14 00:12:44;;;;;;;8.38;3.20;;;;;;;3.11;100.00;100977.19;5080988;28;20418;-77
2024/02/14 00:15:18;;;;;;;7.60;3.13;;;;;;;3.06;100.00;100974.34;5081333;28;20438;-77
2024/02/14 00:17:51;;;;;;;7.90;2.90;;;;;;;3.05;100.00;100978.06;5096246;27;20414;-78
2024/02/14 00:20:24;;;;;;;6.65;2.83;;;;;;;3.09;100.00;100981.97;5076782;28;20411;-77
2024/02/14 00:22:57;;;;;;;11.90;3.30;;;;;;;3.11;100.00;100977.19;5075330;28;21064;-79
2024/02/14 00:25:27;;;;;;;7.90;3.00;;;;;;;3.14;100.00;100976.75;5090960;28;20421;-79
2024/02/14 00:27:55;;;;;;;6.57;2.70;;;;;;;3.09;100.00;100978.47;5072690;28;20421;-78
2024/02/14 00:30:28;;;;;;;6.40;2.75;;;;;;;3.06;100.00;100971.66;5076803;28;20438;-78
2024/02/14 00:32:56;;;;;;;7.72;3.00;;;;;;;3.11;100.00;100973.66;5073545;28;20490;-78
2024/02/14 00:35:30;;;;;;;8.93;2.97;;;;;;;3.05;100.00;100973.53;5076286;28;20422;-78
2024/02/14 00:37:58;;;;;;;7.10;3.15;;;;;;;3.08;100.00;100968.75;5074195;28;20838;-78
2024/02/14 00:40:32;;;;;;;8.38;3.25;;;;;;;3.06;100.00;100969.78;5074209;28;20911;-79
2024/02/14 00:43:01;;;;;;;7.22;3.13;;;;;;;3.04;100.00;100971.88;5077304;28;20432;-78
2024/02/14 00:45:34;;;;;;;8.95;3.22;;;;;;;3.02;100.00;100965.91;5086220;28;20441;-79
2024/02/14 00:48:08;;;;;;;7.20;3.00;;;;;;;2.97;100.00;100963.06;5080130;28;20421;-78
2024/02/14 00:50:41;;;;;;;10.88;3.30;;;;;;;2.84;100.00;100961.31;5082349;28;20407;-78
2024/02/14 00:53:09;;;;;;;7.60;3.20;;;;;;;2.84;100.00;100958.63;5079950;28;20407;-79
2024/02/14 00:55:44;;;;;;;7.68;3.10;;;;;;;2.83;100.00;100964.22;5081145;28;20419;-79
2024/02/14 00:58:17;;;;;;;7.83;2.90;;;;;;;2.81;100.00;100955.56;5082458;28;20440;-79
2024/02/14 01:00:50;;;;;;;7.05;2.85;;;;;;;2.79;100.00;100953.13;5082881;28;20426;-78
2024/02/14 01:03:23;;;;;;;4.97;2.60;;;;;;;2.80;100.00;100948.53;5077677;28;20821;-78
2024/02/14 01:05:57;;;;;;;8.45;3.15;;;;;;;2.74;100.00;100955.63;5082368;28;20787;-79
2024/02/14 01:08:30;;;;;;;9.90;3.10;;;;;;;2.84;100.00;100947.06;5083568;28;20423;-78
2024/02/14 01:11:00;;;;;;;6.07;2.80;;;;;;;2.80;100.00;100941.28;5085298;28;20414;-79
2024/02/14 01:13:33;;;;;;;8.13;3.10;;;;;;;2.79;100.00;100949.59;5080931;28;20428;-78
2024/02/14 01:16:07;;;;;;;6.43;2.83;;;;;;;2.82;100.00;100952.66;5078398;28;20491;-78
2024/02/14 01:18:40;;;;;;;6.63;2.90;;;;;;;2.74;100.00;100950.25;5078045;28;20419;-78
2024/02/14 01:21:14;;;;;;;7.83;2.70;;;;;;;2.72;100.00;100955.84;5080743;28;20462;-78
2024/02/14 01:23:47;;;;;;;7.93;2.90;;;;;;;2.73;100.00;100953.97;5077208;28;20449;-79
2024/02/14 01:26:16;;;;;;;6.80;2.90;;;;;;;2.74;100.00;100944.88;5079011;28;20411;-78
2024/02/14 01:28:50;;;;;;;6.53;2.58;;;;;;;2.79;100.00;100933.47;5081211;28;20422;-78
2024/02/14 01:31:18;;;;;;;6.15;2.70;;;;;;;2.75;100.00;100935.78;5081410;28;20423;-78
2024/02/14 01:33:51;;;;;;;8.27;2.90;;;;;;;2.82;100.00;100933.03;5080658;28;20439;-78
2024/02/14 01:36:24;;;;;;;7.72;2.80;;;;;;;2.78;100.00;100929.97;5078033;28;20414;-78
2024/02/14 01:38:57;;;;;;;8.48;2.40;;;;;;;2.89;100.00;100933.78;5077742;28;20422;-78
2024/02/14 01:41:32;;;;;;;7.97;2.60;;;;;;;2.75;100.00;100924.19;5081593;28;20446;-78
2024/02/14 01:44:06;;;;;;;9.75;2.60;;;;;;;2.81;100.00;100924.13;5077941;28;20415;-77
2024/02/14 01:46:40;;;;;;;7.00;2.95;;;;;;;2.83;100.00;100918.53;5081767;28;20431;-78
2024/02/14 01:49:08;;;;;;;7.30;2.50;;;;;;;2.93;100.00;100912.63;5083169;28;20408;-79
2024/02/14 01:51:44;;;;;;;6.25;2.40;;;;;;;2.84;100.00;100912.13;5075215;28;20438;-78
2024/02/14 01:54:18;;;;;;;8.13;2.60;;;;;;;2.82;100.00;100912.34;5076830;28;20419;-79
2024/02/14 01:56:48;;;;;;;10.57;2.70;;;;;;;2.86;100.00;100904.66;5079828;28;20405;-78
2024/02/14 01:59:21;;;;;;;7.07;2.72;;;;;;;2.81;100.00;100912.56;5080273;28;20408;-79
2024/02/14 02:01:54;;;;;;;6.22;2.60;;;;;;;2.84;100.00;100912.13;5077882;28;20430;-78
2024/02/14 02:04:27;;;;;;;7.25;2.60;;;;;;;2.75;100.00;100900.84;5079759;28;20422;-78
2024/02/14 02:07:01;;;;;;;6.90;2.65;;;;;;;2.66;100.00;100899.47;5077897;28;20433;-78
2024/02/14 02:09:31;;;;;;;6.88;2.90;;;;;;;2.66;100.00;100902.97;5082426;28;20410;-79
2024/02/14 02:12:07;;;;;;;8.43;3.08;;;;;;;2.62;100.00;100899.09;5078988;28;21150;-78
2024/02/14 02:14:41;;;;;;;8.52;2.92;;;;;;;2.62;100.00;100900.97;5082146;28;20413;-78
2024/02/14 02:17:15;;;;;;;9.18;2.92;;;;;;;2.60;100.00;100895.00;5073167;28;20419;-78
2024/02/14 02:19:48;;;;;;;6.67;2.97;;;;;;;2.60;100.00;100900.38;5076707;28;20423;-79
2024/02/14 02:22:21;;;;;;;8.00;3.17;;;;;;;2.61;100.00;100884.03;5078458;28;20423;-79
2024/02/14 02:24:51;;;;;;;8.17;3.00;;;;;;;2.58;100.00;100889.81;5079773;28;20417;-79
2024/02/14 02:27:24;;;;;;;6.97;3.00;;;;;;;2.59;100.00;100883.41;5079762;28;20409;-78
2024/02/14 02:29:58;;;;;;;8.40;3.10;;;;;;;2.49;100.00;100883.94;5077341;28;20440;-79
2024/02/14 02:32:26;;;;;;;7.15;3.35;;;;;;;2.58;100.00;100884.44;5080099;28;21083;-78
2024/02/14 02:34:59;;;;;;;6.65;3.30;;;;;;;2.51;100.00;100881.84;5078345;28;20425;-78
2024/02/14 02:37:33;;;;;;;8.27;3.15;;;;;;;2.66;100.00;100886.03;5075420;28;21087;-79
2024/02/14 02:40:10;;;;;;;8.68;3.42;;;;;;;2.66;100.00;100877.97;5080972;28;20917;-79
2024/02/14 02:42:45;;;;;;;7.60;3.50;;;;;;;2.59;100.00;100877.22;5075768;28;20442;-79
2024/02/14 02:45:18;;;;;;;7.70;3.50;;;;;;;2.58;100.00;100880.97;5079773;28;20428;-79
2024/02/14 02:47:52;;;;;;;8.60;3.65;;;;;;;2.63;100.00;100870.38;5092903;28;20417;-79
2024/02/14 02:50:25;;;;;;;8.73;3.33;;;;;;;2.54;100.00;100867.97;5076938;28;20410;-80
2024/02/14 02:52:58;;;;;;;7.78;3.58;;;;;;;2.67;100.00;100863.50;5078773;28;20419;-78
2024/02/14 02:55:28;;;;;;;9.43;3.40;;;;;;;2.53;100.00;100870.88;5076809;28;20407;-79
2024/02/14 02:58:01;;;;;;;10.00;3.60;;;;;;;2.51;100.00;100859.53;5075810;28;20416;-80
2024/02/14 03:00:35;;;;;;;8.90;3.97;;;;;;;2.54;100.00;100856.38;5091270;28;20493;-80
2024/02/14 03:03:04;;;;;;;8.00;3.57;;;;;;;2.58;100.00;100848.72;5107058;27;20425;-79
2024/02/14 03:05:38;;;;;;;10.60;3.85;;;;;;;2.59;100.00;100853.88;5077601;28;20482;-79
2024/02/14 03:08:08;;;;;;;10.17;4.23;;;;;;;2.57;100.00;100855.13;5077983;28;20426;-79
2024/02/14 03:10:44;;;;;;;10.50;4.32;;;;;;;2.50;100.00;100847.97;5077266;28;20870;-78
2024/02/14 03:13:13;;;;;;;10.80;4.40;;;;;;;2.53;100.00;100836.78;5091960;28;20870;-79
2024/02/14 03:15:43;;;;;;;8.77;4.40;;;;;;;2.55;100.00;100844.59;5077420;28;20425;-78
2024/02/14 03:18:11;;;;;;;9.67;4.50;;;;;;;2.55;100.00;100844.59;5074705;28;20438;-79
2024/02/14 03:20:45;;;;;;;9.93;4.20;;;;;;;2.66;100.00;100837.69;5078293;28;20908;-79
2024/02/14 03:23:18;;;;;;;11.67;4.87;;;;;;;2.67;100.00;100836.63;5078850;28;20410;-79
2024/02/14 03:25:52;;;;;;;8.25;4.45;;;;;;;2.62;100.00;100831.09;5076808;28;21015;-78
2024/02/14 03:28:27;;;;;;;11.32;4.80;;;;;;;2.66;100.00;100822.38;5079124;28;20416;-78
2024/02/14 03:30:57;;;;;;;9.80;4.70;;;;;;;2.62;100.00;100820.34;5074644;28;20407;-79
2024/02/14 03:33:25;;;;;;;10.90;4.70;;;;;;;2.62;100.00;100817.66;5077121;28;20412;-77
2024/02/14 03:35:53;;;;;;;10.18;4.80;;;;;;;2.65;100.00;100803.78;5073122;28;20446;-79
2024/02/14 03:38:27;;;;;;;9.80;4.93;;;;;;;2.63;100.00;100805.88;5080530;28;21018;-79
2024/02/14 03:41:02;;;;;;;8.70;4.68;;;;;;;2.68;100.00;100798.78;5078901;28;20416;-79
2024/02/14 03:43:35;;;;;;;9.50;4.50;;;;;;;2.70;100.00;100804.75;5076969;28;20424;-79
2024/02/14 03:46:08;;;;;;;10.05;4.40;;;;;;;2.68;100.00;100809.53;5074270;28;20900;-79
2024/02/14 03:48:36;;;;;;;9.90;4.63;;;;;;;2.65;100.00;100807.31;5082612;28;20420;-79
2024/02/14 03:51:09;;;;;;;10.98;4.90;;;;;;;2.76;100.00;100804.91;5077496;28;20411;-79
2024/02/14 03:53:43;;;;;;;9.98;4.90;;;;;;;2.69;100.00;100800.44;5078441;28;20414;-79
2024/02/14 03:56:17;;;;;;;13.57;5.00;;;;;;;2.67;100.00;100809.78;5076869;28;20424;-79
2024/02/14 03:58:51;;;;;;;8.50;4.43;;;;;;;2.71;100.00;100797.53;5075139;28;20419;-79
2024/02/14 04:01:19;;;;;;;10.52;4.75;;;;;;;2.75;100.00;100792.50;5079156;28;20407;-79
2024/02/14 04:03:53;;;;;;;7.97;4.38;;;;;;;2.72;100.00;100796.47;5077594;28;20418;-80
2024/02/14 04:06:27;;;;;;;10.60;4.70;;;;;;;2.68;100.00;100782.66;5078371;28;20426;-79
2024/02/14 04:09:01;;;;;;;10.60;4.72;;;;;;;2.72;100.00;100788.41;5077358;28;21086;-80
2024/02/14 04:11:30;;;;;;;11.23;4.90;;;;;;;2.70;100.00;100790.50;5091906;28;20422;-80
2024/02/14 04:14:03;;;;;;;12.47;4.90;;;;;;;2.71;100.00;100794.84;5075116;28;20422;-80
2024/02/14 04:16:31;;;;;;;9.55;4.60;;;;;;;2.72;100.00;100789.25;5076802;28;20422;-80
2024/02/14 04:19:05;;;;;;;11.82;4.90;;;;;;;2.78;100.00;100792.09;5074607;28;20427;-78
2024/02/14 04:21:38;;;;;;;9.15;4.70;;;;;;;2.75;100.00;100789.81;5077247;28;20423;-79
2024/02/14 04:24:11;;;;;;;10.88;5.03;;;;;;;2.73;100.00;100798.09;5080610;28;20972;-79
2024/02/14 04:26:41;;;;;;;9.13;4.63;;;;;;;2.75;100.00;100790.66;5073927;28;20429;-79
2024/02/14 04:29:14;;;;;;;9.10;4.70;;;;;;;2.81;100.00;100784.38;5074744;28;20414;-79
2024/02/14 04:31:43;;;;;;;11.77;4.80;;;;;;;2.79;100.00;100778.41;5078048;28;20442;-79
2024/02/14 04:34:13;;;;;;;8.88;4.70;;;;;;;2.79;100.00;100770.34;5075011;28;20450;-80
2024/02/14 04:36:46;;;;;;;11.07;4.65;;;;;;;2.78;100.00;100779.44;5078950;28;20454;-80
2024/02/14 04:39:19;;;;;;;11.07;5.00;;;;;;;2.77;100.00;100777.00;5077102;28;20429;-79
2024/02/14 04:41:54;;;;;;;9.23;4.60;;;;;;;2.79;100.00;100764.13;5078218;28;20423;-79
2024/02/14 04:44:27;;;;;;;9.93;4.90;;;;;;;2.78;100.00;100757.94;5090718;28;20435;-79
2024/02/14 04:47:01;;;;;;;10.85;4.90;;;;;;;2.79;100.00;100762.28;5071481;28;20431;-80
2024/02/14 04:49:29;;;;;;;10.70;5.03;;;;;;;2.80;100.00;100755.84;5083133;28;20431;-79
2024/02/14 04:52:03;;;;;;;9.85;5.30;;;;;;;2.86;100.00;100754.94;5074360;28;20783;-79
2024/02/14 04:54:32;;;;;;;10.68;5.10;;;;;;;2.87;100.00;100753.06;5077484;28;20409;-79
2024/02/14 04:57:06;;;;;;;10.82;5.25;;;;;;;2.91;100.00;100756.94;5074288;28;20418;-80
2024/02/14 04:59:35;;;;;;;13.00;5.93;;;;;;;2.87;100.00;100753.91;5071171;28;20429;-79
2024/02/14 05:02:08;;;;;;;11.43;5.78;;;;;;;2.92;100.00;100753.22;5089704;28;20432;-78
2024/02/14 05:04:37;;;;;;;13.50;5.60;;;;;;;2.91;100.00;100753.44;5072652;28;20414;-79
2024/02/14 05:07:06;;;;;;;12.30;5.43;;;;;;;2.89;100.00;100746.44;5081083;28;20423;-80
2024/02/14 05:09:39;;;;;;;10.43;5.28;;;;;;;2.88;100.00;100747.47;5075700;28;20420;-80
2024/02/14 05:12:14;;;;;;;13.10;5.65;;;;;;;2.91;100.00;100751.56;5074988;28;20423;-80
2024/02/14 05:14:47;;;;;;;9.50;5.15;;;;;;;2.92;100.00;100737.09;5075433;28;20420;-79
2024/02/14 05:17:21;;;;;;;10.77;5.13;;;;;;;2.90;100.00;100741.88;5074314;28;20420;-79
2024/02/14 05:19:49;;;;;;;12.07;5.40;;;;;;;2.90;100.00;100739.19;5088744;28;20450;-79
2024/02/14 05:22:22;;;;;;;12.65;5.40;;;;;;;2.99;100.00;100743.19;5071653;28;20450;-80
2024/02/14 05:24:50;;;;;;;10.73;5.20;;;;;;;2.97;100.00;100745.31;5089165;28;20432;-79
2024/02/14 05:27:20;;;;;;;12.25;5.38;;;;;;;3.01;100.00;100743.81;5072933;28;20423;-79
2024/02/14 05:29:48;;;;;;;10.70;5.53;;;;;;;2.94;100.00;100737.69;5078657;28;20450;-82
2024/02/14 05:32:21;;;;;;;13.05;5.53;;;;;;;2.93;100.00;100736.06;5077468;28;20420;-78
2024/02/14 05:34:54;;;;;;;13.35;5.50;;;;;;;3.02;100.00;100737.34;5095400;28;20901;-79
2024/02/14 05:37:28;;;;;;;11.70;5.40;;;;;;;3.11;100.00;100724.44;5075121;28;20430;-79
2024/02/14 05:40:02;;;;;;;11.53;5.50;;;;;;;3.12;100.00;100731.44;5079857;28;20427;-79
2024/02/14 05:42:37;;;;;;;11.30;5.57;;;;;;;3.14;100.00;100726.66;5096479;28;20415;-78
2024/02/14 05:45:09;;;;;;;11.52;5.57;;;;;;;3.08;100.00;100724.91;5078614;28;20419;-78
2024/02/14 05:47:37;;;;;;;12.93;5.63;;;;;;;3.17;100.00;100723.50;5076856;28;20792;-78
2024/02/14 05:50:08;;;;;;;12.68;5.28;;;;;;;3.03;100.00;100717.50;5081266;28;20441;-78
2024/02/14 05:52:36;;;;;;;12.63;5.40;;;;;;;3.12;100.00;100715.31;5081037;28;20423;-79
2024/02/14 05:55:10;;;;;;;11.17;5.70;;;;;;;3.06;100.00;100714.34;5093130;28;21008;-79
2024/02/14 05:57:44;;;;;;;14.95;5.45;;;;;;;3.05;100.00;100707.34;5079967;28;20410;-79
2024/02/14 06:00:18;;;;;;;15.52;6.20;;;;;;;3.12;100.00;100707.25;5081024;28;20423;-79
2024/02/14 06:02:51;;;;;;;13.88;6.90;;;;;;;3.11;100.00;100707.44;5089197;28;20422;-78
2024/02/14 06:05:25;;;;;;;13.93;6.30;;;;;;;3.08;100.00;100703.38;5084819;28;20505;-78
2024/02/14 06:07:58;;;;;;;11.50;5.80;;;;;;;3.12;100.00;100707.25;5095617;28;20905;-79
2024/02/14 06:10:27;;;;;;;11.57;5.70;;;;;;;3.10;100.00;100693.19;5080251;28;20426;-78
2024/02/14 06:12:56;;;;;;;14.90;5.90;;;;;;;3.12;100.00;100690.28;5079434;28;20423;-78
2024/02/14 06:15:29;;;;;;;12.75;6.43;;;;;;;3.16;100.00;100697.69;5079374;28;21332;-79
2024/02/14 06:18:03;;;;;;;13.57;6.13;;;;;;;3.18;100.00;100695.56;5081076;28;20416;-79
2024/02/14 06:20:31;;;;;;;12.73;6.13;;;;;;;3.20;100.00;100689.94;5083855;28;20428;-79
2024/02/14 06:23:04;;;;;;;11.33;5.90;;;;;;;3.23;100.00;100695.69;5080785;28;20946;-78
2024/02/14 06:25:37;;;;;;;11.73;5.82;;;;;;;3.25;100.00;100694.66;5094829;28;20423;-78
2024/02/14 06:28:09;;;;;;;11.75;6.20;;;;;;;3.25;100.00;100690.09;5076982;28;20417;-78
2024/02/14 06:30:37;;;;;;;12.80;6.13;;;;;;;3.23;100.00;100697.56;5080205;28;20431;-79
2024/02/14 06:33:10;;;;;;;15.50;6.60;;;;;;;3.27;100.00;100692.53;5075917;28;20426;-79
2024/02/14 06:35:45;;;;;;;12.18;6.50;;;;;;;3.21;100.00;100689.72;5078921;28;20423;-79
2024/02/14 06:38:13;;;;;;;13.38;6.53;;;;;;;3.27;100.00;100689.84;5076546;28;20480;-79
2024/02/14 06:40:46;;;;;;;14.82;6.95;;;;;;;3.29;100.00;100691.25;5072484;28;20465;-78
2024/02/14 06:43:15;;;;;;;14.88;6.88;;;;;;;3.26;100.00;100699.81;5076365;28;20907;-78
2024/02/14 06:45:49;;;;;;;16.05;6.50;;;;;;;3.31;100.00;100701.78;5085334;28;20421;-79
2024/02/14 06:48:23;;;;;;;14.52;7.15;;;;;;;3.38;100.00;100699.81;5078316;28;20926;-80
2024/02/14 06:50:56;;;;;;;13.57;6.50;;;;;;;3.31;100.00;100707.16;5093611;28;20430;-79
2024/02/14 06:53:30;;;;;;;14.38;7.05;;;;;;;3.30;100.00;100700.97;5077272;28;20421;-80
2024/02/14 06:56:04;;;;;;;15.40;7.05;;;;;;;3.28;100.00;100700.38;5093365;28;20423;-79
2024/02/14 06:58:38;;;;;;;15.10;7.15;;;;;;;3.36;100.00;100701.91;5077626;28;20417;-79
2024/02/14 07:01:15;;;;;;;13.95;6.82;;;;;;;3.36;100.00;100693.84;5089559;28;20441;-80
2024/02/14 07:03:45;;;;;;;14.10;7.13;;;;;;;3.36;100.00;100694.66;5077534;28;20422;-78
2024/02/14 07:06:18;;;;;;;16.50;7.47;;;;;;;3.38;100.00;100705.19;5074985;28;20426;-79
2024/02/14 07:08:51;;;;;;;16.17;7.30;;;;;;;3.50;100.00;100695.25;5076380;28;20420;-79
2024/02/14 07:11:24;;;;;;;15.52;8.00;;;;;;;3.46;100.00;100698.66;5076986;28;20915;-80
2024/02/14 07:13:54;;;;;;;15.80;7.45;;;;;;;3.46;100.00;100693.28;5078215;28;20422;-79
2024/02/14 07:16:27;;;;;;;14.93;7.60;;;;;;;3.56;100.00;100698.91;5082802;28;20983;-78
2024/02/14 07:18:56;;;;;;;16.67;7.38;;;;;;;3.53;100.00;100694.78;5085128;28;20422;-78
2024/02/14 07:21:24;;;;;;;14.27;7.38;;;;;;;3.66;100.00;100693.78;5074212;28;20434;-79
2024/02/14 07:23:57;;;;;;;14.15;7.25;;;;;;;3.58;100.00;100696.81;5075613;28;20420;-79
2024/02/14 07:26:25;;;;;;;18.00;7.73;;;;;;;3.62;100.00;100697.97;5084018;28;20433;-80
2024/02/14 07:29:00;;;;;;;13.48;6.97;;;;;;;3.67;100.00;100699.97;5075733;28;20421;-78
2024/02/14 07:31:30;;;;;;;16.17;7.50;;;;;;;3.73;100.00;100697.16;5075860;28;20976;-79
2024/02/14 07:34:03;;;;;;;15.02;6.95;;;;;;;3.69;100.00;100700.56;5076387;28;20972;-80
2024/02/14 07:36:37;;;;;;;15.00;6.97;;;;;;;3.74;100.00;100688.03;5077015;28;20790;-79
2024/02/14 07:39:10;;;;;;;13.95;7.07;;;;;;;3.66;100.00;100691.06;5091970;28;20424;-79
2024/02/14 07:41:38;;;;;;;13.50;6.60;;;;;;;3.71;100.00;100684.97;5076701;28;20428;-80
2024/02/14 07:44:13;;;;;;;14.77;6.90;;;;;;;3.78;100.00;100683.00;5078541;28;20937;-79
2024/02/14 07:46:41;;;;;;;13.80;6.97;;;;;;;3.81;100.00;100679.84;5079484;28;20421;-79
2024/02/14 07:49:09;;;;;;;12.83;6.87;;;;;;;3.88;100.00;100679.72;5078648;28;20418;-79
2024/02/14 07:51:43;;;;;;;14.95;7.15;;;;;;;3.91;100.00;100682.75;5075994;28;20802;-79
2024/02/14 07:54:11;;;;;;;14.98;7.80;;;;;;;3.96;100.00;100678.53;5077058;28;20418;-79
2024/02/14 07:56:44;;;;;;;15.10;7.60;;;;;;;3.93;100.00;100682.53;5078700;28;20420;-80
2024/02/14 07:59:20;;;;;;;16.30;8.13;;;;;;;3.95;100.00;100682.28;5077046;28;20473;-82
2024/02/14 08:01:48;;;;;;;16.17;7.85;;;;;;;4.01;100.00;100674.09;5071428;28;20448;-78
2024/02/14 08:04:21;;;;;;;13.57;7.20;;;;;;;4.01;100.00;100676.78;5086560;28;20431;-79
2024/02/14 08:06:55;;;;;;;15.93;7.27;;;;;;;4.00;100.00;100674.31;5073785;28;20420;-79
2024/02/14 08:09:28;;;;;;;18.83;8.82;;;;;;;3.99;100.00;100672.69;5069178;28;20423;-82
2024/02/14 08:11:56;;;;;;;16.75;8.20;;;;;;;4.03;100.00;100677.38;5076693;28;20436;-81
2024/02/14 08:14:31;;;;;;;13.88;7.95;;;;;;;4.13;100.00;100668.69;5074037;28;20435;-80
2024/02/14 08:16:59;;;;;;;13.90;7.15;;;;;;;4.06;100.00;100678.75;5074147;28;20414;-78
2024/02/14 08:19:32;;;;;;;14.00;7.32;;;;;;;4.05;100.00;100680.63;5069951;28;20905;-79
2024/02/14 08:22:05;;;;;;;15.50;7.20;;;;;;;4.11;100.00;100672.69;5073752;28;20445;-79
2024/02/14 08:24:38;;;;;;;12.70;6.93;;;;;;;4.16;100.00;100670.09;5076873;28;20431;-80
2024/02/14 08:27:12;;;;;;;13.73;7.05;;;;;;;4.22;100.00;100671.81;5078184;28;20441;-80
2024/02/14 08:29:41;;;;;;;13.52;7.68;;;;;;;4.21;100.00;100671.00;5062940;28;20435;-80
2024/02/14 08:32:14;;;;;;;17.33;8.10;;;;;;;4.26;100.00;100675.69;5069593;28;21802;-79
2024/02/14 08:34:50;;;;;;;13.95;7.30;;;;;;;4.32;100.00;100676.59;5069776;28;20417;-79
2024/02/14 08:37:24;;;;;;;13.60;7.00;;;;;;;4.41;100.00;100673.28;5071678;28;21260;-79
2024/02/14 08:39:52;;;;;;;14.32;7.40;;;;;;;4.45;100.00;100672.81;5053206;28;22183;-78
2024/02/14 08:42:26;;;;;;;14.07;7.10;;;;;;;4.46;100.00;100674.44;5051227;28;20425;-78
2024/02/14 08:45:00;;;;;;;15.63;7.50;;;;;;;4.51;100.00;100674.56;5057649;28;20425;-79
2024/02/14 08:47:33;;;;;;;15.05;7.38;;;;;;;4.50;100.00;100671.06;5057482;28;20422;-78
2024/02/14 08:50:02;;;;;;;14.85;7.28;;;;;;;4.57;100.00;100669.03;5059879;28;21187;-78
2024/02/14 08:52:37;;;;;;;12.80;6.73;;;;;;;4.71;100.00;100668.72;5052509;28;20512;-78
2024/02/14 08:55:16;;;;;;;13.30;6.57;;;;;;;4.59;100.00;100666.91;5054356;28;20448;-78
2024/02/14 08:57:49;;;;;;;12.82;6.90;;;;;;;4.67;100.00;100664.88;5052281;28;20427;-78
2024/02/14 09:00:24;;;;;;;14.43;6.93;;;;;;;4.68;100.00;100667.34;5049892;28;20433;-78
2024/02/14 09:02:59;;;;;;;13.88;7.68;;;;;;;4.66;100.00;100671.34;5051280;28;20437;-78
2024/02/14 09:05:34;;;;;;;14.52;7.50;;;;;;;4.74;100.00;100670.97;5057108;28;20451;-79
2024/02/14 09:08:07;;;;;;;13.70;7.50;;;;;;;4.78;100.00;100666.72;5056361;28;20515;-79
2024/02/14 09:10:40;;;;;;;15.15;6.70;;;;;;;4.81;100.00;100671.63;5058966;28;20987;-78
2024/02/14 09:13:14;;;;;;;12.07;6.47;;;;;;;4.78;100.00;100666.72;5060988;28;20444;-78
2024/02/14 09:15:44;;;;;;;14.43;6.78;;;;;;;4.83;100.00;100674.09;5064998;28;20426;-78
2024/02/14 09:18:18;;;;;;;13.25;6.43;;;;;;;4.89;100.00;100676.63;5051149;28;20421;-79
2024/02/14 09:20:52;;;;;;;16.38;6.72;;;;;;;4.97;100.00;100672.72;5052954;28;20480;-80
2024/02/14 09:23:25;;;;;;;13.20;6.55;;;;;;;5.03;100.00;100670.94;5065662;28;20434;-81
2024/02/14 09:25:54;;;;;;;12.73;6.60;;;;;;;5.03;100.00;100674.44;5065236;28;21022;-78
2024/02/14 09:28:27;;;;;;;10.82;6.43;;;;;;;5.12;100.00;100677.56;5053980;28;20424;-78
2024/02/14 09:31:04;;;;;;;13.25;6.35;;;;;;;5.10;100.00;100672.41;5056009;28;20430;-79
2024/02/14 09:33:32;;;;;;;12.10;6.28;;;;;;;5.15;100.00;100677.09;5064043;28;20439;-78
2024/02/14 09:36:06;;;;;;;12.38;6.47;;;;;;;5.17;100.00;100680.34;5060788;28;20429;-79
2024/02/14 09:38:39;;;;;;;11.93;5.93;;;;;;;5.18;100.00;100673.06;5049606;28;20433;-78
2024/02/14 09:41:20;;;;;;;11.85;6.18;;;;;;;5.22;100.00;100672.34;5058622;28;20444;-80
2024/02/14 09:43:48;;;;;;;10.88;6.00;;;;;;;5.34;100.00;100676.84;5059684;28;20453;-78
2024/02/14 09:46:18;;;;;;;10.93;5.80;;;;;;;5.40;100.00;100681.25;5053774;28;20421;-79
2024/02/14 09:48:53;;;;;;;11.67;6.00;;;;;;;5.46;100.00;100677.59;5062973;28;20913;-77
2024/02/14 09:51:22;;;;;;;11.30;6.00;;;;;;;5.54;100.00;100670.97;5064162;28;20428;-77
2024/02/14 09:53:56;;;;;;;11.68;5.85;;;;;;;5.52;100.00;100676.59;5060175;28;20442;-78
2024/02/14 09:56:30;;;;;;;12.23;6.03;;;;;;;5.60;100.00;100675.38;5059682;28;20414;-78
2024/02/14 09:59:04;;;;;;;11.35;6.00;;;;;;;5.67;100.00;100680.63;5057440;28;20429;-78
2024/02/14 10:01:39;;;;;;;11.30;6.07;;;;;;;5.70;100.00;100678.22;5058597;28;20438;-80
2024/02/14 10:04:12;;;;;;;11.80;6.22;;;;;;;5.65;100.00;100678.16;5058211;28;20477;-78
2024/02/14 10:06:46;;;;;;;11.03;5.67;;;;;;;5.74;100.00;100683.94;5053124;28;20866;-78
2024/02/14 10:09:21;;;;;;;10.00;5.57;;;;;;;5.80;100.00;100674.88;5054648;28;20430;-79
2024/02/14 10:11:54;;;;;;;11.63;5.70;;;;;;;5.83;100.00;100679.78;5059223;28;20765;-78
2024/02/14 10:14:29;;;;;;;11.52;5.93;;;;;;;6.00;100.00;100668.16;5056797;28;20445;-78
2024/02/14 10:17:04;;;;;;;10.23;5.45;;;;;;;5.99;100.00;100674.63;5061624;28;20429;-79
2024/02/14 10:19:33;;;;;;;9.90;5.57;;;;;;;6.00;100.00;100674.34;5056160;28;20429;-78
2024/02/14 10:22:07;;;;;;;9.73;5.43;;;;;;;5.99;100.00;100674.63;5060736;28;21344;-79
2024/02/14 10:24:35;;;;;;;10.43;5.57;;;;;;;6.04;100.00;100677.41;5053190;28;20422;-78
2024/02/14 10:27:09;;;;;;;11.52;5.68;;;;;;;6.10;100.00;100679.09;5058516;28;20870;-80
2024/02/14 10:29:43;;;;;;;10.32;5.68;;;;;;;6.18;100.00;100677.84;5057156;28;20433;-79
2024/02/14 10:32:17;;;;;;;11.27;5.63;;;;;;;6.25;100.00;100673.06;5059608;28;20429;-79
2024/02/14 10:34:51;;;;;;;9.48;5.15;;;;;;;6.33;100.00;100678.03;5056106;28;20418;-78
2024/02/14 10:37:26;;;;;;;10.77;5.20;;;;;;;6.32;100.00;100681.78;5078548;28;20794;-79
2024/02/14 10:40:02;;;;;;;11.05;5.20;;;;;;;6.38;100.00;100685.38;5061616;28;20439;-77
2024/02/14 10:42:36;;;;;;;9.93;5.13;;;;;;;6.41;100.00;100684.91;5056643;28;20418;-78
2024/02/14 10:45:10;;;;;;;10.32;5.43;;;;;;;6.66;100.00;100692.47;5059453;28;20422;-79
2024/02/14 10:47:48;;;;;;;9.20;5.00;;;;;;;6.59;100.00;100684.56;5059936;28;20448;-78
2024/02/14 10:50:23;;;;;;;9.38;4.97;;;;;;;6.53;100.00;100687.44;5062080;28;20414;-79
2024/02/14 10:52:54;;;;;;;10.30;5.25;;;;;;;6.60;100.00;100688.06;5060227;28;20416;-78
2024/02/14 10:55:31;;;;;;;9.00;5.05;;;;;;;6.55;100.00;100691.53;5056316;28;20430;-78
2024/02/14 10:58:05;;;;;;;9.88;5.20;;;;;;;6.68;100.00;100693.03;5066345;28;20421;-79
2024/02/14 11:00:39;;;;;;;8.70;4.72;;;;;;;6.78;100.00;100687.75;5060615;28;20853;-79
2024/02/14 11:03:15;;;;;;;10.07;5.88;;;;;;;6.85;100.00;100687.56;5059407;28;20425;-78
2024/02/14 11:05:50;;;;;;;26.58;12.90;;;;;;;6.85;100.00;100689.41;5060971;28;20720;-78
2024/02/14 11:08:25;;;;;;;22.87;12.67;;;;;;;6.92;100.00;100688.16;5052723;28;20435;-78
2024/02/14 11:11:01;;;;;;;14.43;8.63;;;;;;;6.97;100.00;100690.09;5051335;28;20959;-78
2024/02/14 11:13:30;;;;;;;10.43;5.80;;;;;;;7.13;100.00;100689.16;5052064;28;20442;-78
2024/02/14 11:16:01;;;;;;;12.18;7.60;;;;;;;7.12;100.00;100682.13;5053119;28;20433;-79
2024/02/14 11:18:37;;;;;;;24.90;15.65;;;;;;;7.11;100.00;100693.19;5053968;28;20945;-79
2024/02/14 11:21:17;;;;;;;13.02;7.22;;;;;;;7.20;100.00;100683.56;5060013;28;20411;-80
2024/02/14 11:23:54;;;;;;;12.07;6.65;;;;;;;7.17;100.00;100683.22;5062176;28;20426;-79
2024/02/14 11:26:28;;;;;;;10.43;5.57;;;;;;;7.29;100.00;100683.88;5058646;28;20422;-78
2024/02/14 11:29:02;;;;;;;13.52;7.28;;;;;;;7.37;100.00;100679.91;5057408;28;20828;-77
2024/02/14 11:31:34;;;;;;;8.13;4.20;;;;;;;7.24;100.00;100681.97;5051979;28;20409;-79
2024/02/14 11:34:08;;;;;;;8.73;4.97;;;;;;;7.29;100.00;100684.72;5056056;28;20414;-80
2024/02/14 11:36:44;;;;;;;7.60;4.30;;;;;;;7.21;100.00;100677.06;5063546;28;20430;-79
2024/02/14 11:39:17;;;;;;;11.15;5.40;;;;;;;7.35;100.00;100679.31;5051514;28;20426;-78
2024/02/14 11:41:50;;;;;;;7.45;4.05;;;;;;;7.38;100.00;100679.63;5054523;28;20429;-79